createdAt,value
2023-04-13T00:00:16.494Z,0.90
2023-04-13T00:02:43.988Z,0.60
2023-04-13T00:05:13.558Z,0.60
2023-04-13T00:07:41.094Z,1.67
2023-04-13T00:10:09.602Z,0.70
2023-04-13T00:12:37.039Z,0.80
2023-04-13T00:15:05.587Z,0.70
2023-04-13T00:17:33.413Z,0.60
2023-04-13T00:20:00.954Z,0.70
2023-04-13T00:22:30.023Z,0.70
2023-04-13T00:24:59.676Z,0.73
2023-04-13T00:27:28.066Z,0.73
2023-04-13T00:29:56.238Z,0.70
2023-04-13T00:32:23.988Z,0.80
2023-04-13T00:34:51.520Z,0.70
2023-04-13T00:37:20.004Z,0.60
2023-04-13T00:39:49.091Z,0.80
2023-04-13T00:42:19.115Z,0.80
2023-04-13T00:44:46.624Z,0.80
2023-04-13T00:47:17.611Z,0.87
2023-04-13T00:49:45.617Z,0.93
2023-04-13T00:52:14.034Z,0.90
2023-04-13T00:54:41.490Z,0.80
2023-04-13T00:57:10.346Z,0.80
2023-04-13T00:59:38.013Z,0.90
2023-04-13T01:02:07.514Z,0.83
2023-04-13T01:04:35.284Z,0.70
2023-04-13T01:07:06.843Z,0.90
2023-04-13T01:09:36.273Z,0.80
2023-04-13T01:12:06.944Z,0.80
2023-04-13T01:14:37.436Z,0.70
2023-04-13T01:17:11.574Z,0.80
2023-04-13T01:19:45.197Z,0.80
2023-04-13T01:22:14.341Z,0.87
2023-04-13T01:24:45.075Z,1.03
2023-04-13T01:27:15.996Z,0.80
2023-04-13T01:29:46.637Z,1.10
2023-04-13T01:32:15.685Z,1.77
2023-04-13T01:34:43.473Z,0.87
2023-04-13T01:37:10.912Z,0.80
2023-04-13T01:39:38.668Z,1.10
2023-04-13T01:42:16.663Z,0.90
2023-04-13T01:44:46.257Z,0.70
2023-04-13T01:47:16.682Z,0.80
2023-04-13T01:49:56.752Z,0.80
2023-04-13T01:52:47.919Z,0.77
2023-04-13T01:55:16.799Z,1.80
2023-04-13T01:57:50.079Z,0.77
2023-04-13T02:00:20.289Z,1.10
2023-04-13T02:02:49.841Z,1.10
2023-04-13T02:05:17.367Z,1.00
2023-04-13T02:07:45.862Z,1.00
2023-04-13T02:10:13.439Z,1.13
2023-04-13T02:12:40.892Z,1.10
2023-04-13T02:15:08.848Z,1.10
2023-04-13T02:17:37.765Z,0.97
2023-04-13T02:20:11.086Z,0.80
2023-04-13T02:22:39.389Z,0.90
2023-04-13T02:25:08.398Z,0.80
2023-04-13T02:27:36.157Z,1.10
2023-04-13T02:30:03.730Z,0.93
2023-04-13T02:32:31.464Z,1.00
2023-04-13T02:35:00.875Z,0.90
2023-04-13T02:37:29.423Z,0.90
2023-04-13T02:39:56.909Z,0.90
2023-04-13T02:42:24.413Z,1.20
2023-04-13T02:44:51.888Z,0.90
2023-04-13T02:47:19.995Z,1.00
2023-04-13T02:49:47.740Z,1.10
2023-04-13T02:52:27.263Z,1.17
2023-04-13T02:55:01.094Z,0.93
2023-04-13T02:57:34.163Z,1.00
2023-04-13T03:00:09.925Z,0.83
2023-04-13T03:02:44.997Z,0.90
2023-04-13T03:05:14.763Z,1.10
2023-04-13T03:07:43.500Z,1.10
2023-04-13T03:10:11.318Z,0.90
2023-04-13T03:12:39.031Z,1.20
2023-04-13T03:15:11.287Z,0.90
2023-04-13T03:17:41.432Z,1.20
2023-04-13T03:20:12.498Z,1.00
2023-04-13T03:22:46.040Z,1.00
2023-04-13T03:25:13.535Z,1.10
2023-04-13T03:27:41.013Z,1.10
2023-04-13T03:30:09.345Z,1.17
2023-04-13T03:32:46.800Z,1.00
2023-04-13T03:35:14.236Z,1.10
2023-04-13T03:37:43.381Z,1.20
2023-04-13T03:40:20.663Z,1.20
2023-04-13T03:42:51.920Z,0.97
2023-04-13T03:45:20.505Z,0.97
2023-04-13T03:47:48.229Z,1.17
2023-04-13T03:50:15.874Z,1.33
2023-04-13T03:52:43.310Z,1.00
2023-04-13T03:55:10.805Z,1.20
2023-04-13T03:57:41.279Z,1.20
2023-04-13T04:00:15.700Z,1.03
2023-04-13T04:02:56.083Z,1.00
2023-04-13T04:05:31.185Z,1.10
2023-04-13T04:08:04.881Z,1.00
2023-04-13T04:10:32.484Z,1.40
2023-04-13T04:13:01.893Z,1.13
2023-04-13T04:15:31.754Z,0.90
2023-04-13T04:18:03.665Z,1.13
2023-04-13T04:20:32.184Z,1.20
2023-04-13T04:23:01.083Z,1.30
2023-04-13T04:25:33.417Z,1.23
2023-04-13T04:28:02.683Z,0.90
2023-04-13T04:30:34.021Z,0.90
2023-04-13T04:33:04.164Z,0.97
2023-04-13T04:35:36.046Z,1.43
2023-04-13T04:38:09.097Z,1.20
2023-04-13T04:40:37.945Z,1.00
2023-04-13T04:43:08.850Z,1.90
2023-04-13T04:45:43.424Z,1.53
2023-04-13T04:48:13.391Z,2.13
2023-04-13T04:50:45.338Z,2.40
2023-04-13T04:53:16.341Z,1.80
2023-04-13T04:55:46.396Z,1.40
2023-04-13T04:58:24.332Z,1.20
2023-04-13T05:00:57.002Z,1.20
2023-04-13T05:03:24.841Z,1.00
2023-04-13T05:06:00.919Z,1.20
2023-04-13T05:08:32.002Z,1.37
2023-04-13T05:10:59.447Z,0.90
2023-04-13T05:13:28.266Z,1.30
2023-04-13T05:16:10.545Z,1.60
2023-04-13T05:18:45.941Z,1.20
2023-04-13T05:21:22.880Z,1.13
2023-04-13T05:23:57.448Z,1.20
2023-04-13T05:26:25.151Z,1.20
2023-04-13T05:28:54.520Z,1.30
2023-04-13T05:31:24.165Z,1.20
2023-04-13T05:33:51.920Z,1.10
2023-04-13T05:36:19.280Z,0.97
2023-04-13T05:38:48.191Z,1.20
2023-04-13T05:41:18.982Z,1.20
2023-04-13T05:43:46.545Z,1.27
2023-04-13T05:46:15.895Z,1.20
2023-04-13T05:48:43.924Z,1.20
2023-04-13T05:51:15.471Z,1.30
2023-04-13T05:53:44.696Z,1.37
2023-04-13T05:56:12.278Z,1.10
2023-04-13T05:58:40.598Z,1.30
2023-04-13T06:01:23.511Z,1.20
2023-04-13T06:03:53.408Z,1.50
2023-04-13T06:06:21.407Z,1.17
2023-04-13T06:08:49.470Z,1.30
2023-04-13T06:11:17.499Z,1.50
2023-04-13T06:13:44.891Z,1.30
2023-04-13T06:16:12.338Z,1.30
2023-04-13T06:18:41.374Z,1.57
2023-04-13T06:21:09.023Z,1.40
2023-04-13T06:23:37.424Z,1.00
2023-04-13T06:26:12.646Z,1.30
2023-04-13T06:28:46.119Z,1.30
2023-04-13T06:31:14.198Z,1.20
2023-04-13T06:33:44.413Z,1.10
2023-04-13T06:36:13.010Z,1.30
2023-04-13T06:38:40.761Z,1.30
2023-04-13T06:41:12.654Z,1.50
2023-04-13T06:43:42.266Z,1.33
2023-04-13T06:46:20.110Z,1.40
2023-04-13T06:48:51.698Z,1.33
2023-04-13T06:51:23.909Z,1.20
2023-04-13T06:53:53.657Z,1.37
2023-04-13T06:56:21.336Z,1.30
2023-04-13T06:58:48.838Z,1.40
2023-04-13T07:01:16.442Z,1.33
2023-04-13T07:03:45.186Z,1.30
2023-04-13T07:06:15.613Z,1.50
2023-04-13T07:08:43.661Z,2.30
2023-04-13T07:11:11.165Z,1.30
2023-04-13T07:13:39.769Z,1.33
2023-04-13T07:16:12.146Z,1.63
2023-04-13T07:18:42.800Z,1.40
2023-04-13T07:21:10.184Z,1.30
2023-04-13T07:23:51.750Z,1.13
2023-04-13T07:26:19.218Z,1.93
2023-04-13T07:28:46.592Z,1.40
2023-04-13T07:31:14.777Z,1.40
2023-04-13T07:33:46.281Z,1.40
2023-04-13T07:36:16.319Z,1.47
2023-04-13T07:38:46.024Z,1.30
2023-04-13T07:41:21.957Z,1.30
2023-04-13T07:43:52.190Z,1.40
2023-04-13T07:46:26.155Z,1.33
2023-04-13T07:48:54.515Z,1.60
2023-04-13T07:51:27.609Z,1.77
2023-04-13T07:53:55.599Z,1.60
2023-04-13T07:56:27.068Z,1.50
2023-04-13T07:58:55.131Z,1.30
2023-04-13T08:01:22.562Z,1.40
2023-04-13T08:03:50.920Z,1.27
2023-04-13T08:06:23.296Z,1.63
2023-04-13T08:08:52.645Z,1.40
2023-04-13T08:11:20.377Z,1.23
2023-04-13T08:13:52.336Z,1.50
2023-04-13T08:16:19.961Z,1.33
2023-04-13T08:18:47.482Z,1.30
2023-04-13T08:21:15.345Z,1.30
2023-04-13T08:23:44.561Z,1.57
2023-04-13T08:26:17.493Z,1.30
2023-04-13T08:28:44.924Z,1.27
2023-04-13T08:31:14.623Z,1.40
2023-04-13T08:33:47.622Z,1.40
2023-04-13T08:36:16.187Z,1.50
2023-04-13T08:38:44.122Z,1.47
2023-04-13T08:41:13.155Z,1.53
2023-04-13T08:43:40.943Z,1.70
2023-04-13T08:46:08.593Z,1.83
2023-04-13T08:48:59.112Z,1.43
2023-04-13T08:51:36.303Z,2.40
2023-04-13T08:54:03.797Z,1.30
2023-04-13T08:56:45.205Z,1.03
2023-04-13T08:59:17.308Z,1.23
2023-04-13T09:01:47.254Z,1.30
2023-04-13T09:04:19.032Z,1.37
2023-04-13T09:06:50.878Z,1.30
2023-04-13T09:09:21.199Z,1.30
2023-04-13T09:11:51.488Z,1.30
2023-04-13T09:14:20.507Z,1.57
2023-04-13T09:16:48.683Z,1.23
2023-04-13T09:19:31.569Z,1.37
2023-04-13T09:21:58.964Z,1.40
2023-04-13T09:24:27.137Z,1.30
2023-04-13T09:26:54.557Z,1.10
2023-04-13T09:29:22.694Z,2.30
2023-04-13T09:31:50.100Z,1.40
2023-04-13T09:34:27.612Z,1.20
2023-04-13T09:36:58.100Z,1.70
2023-04-13T09:39:28.599Z,1.20
2023-04-13T09:41:56.619Z,1.30
2023-04-13T09:44:27.316Z,1.57
2023-04-13T09:46:57.761Z,1.53
2023-04-13T09:49:25.694Z,1.10
2023-04-13T09:51:53.889Z,1.43
2023-04-13T09:54:23.071Z,1.17
2023-04-13T09:56:54.427Z,1.73
2023-04-13T09:59:23.272Z,1.67
2023-04-13T10:01:51.308Z,1.30
2023-04-13T10:04:19.002Z,1.20
2023-04-13T10:06:46.839Z,1.37
2023-04-13T10:09:14.863Z,1.20
2023-04-13T10:11:45.644Z,1.33
2023-04-13T10:14:15.212Z,1.30
2023-04-13T10:16:50.136Z,1.47
2023-04-13T10:19:18.688Z,1.10
2023-04-13T10:21:47.620Z,1.80
2023-04-13T10:24:15.271Z,1.43
2023-04-13T10:26:44.864Z,1.53
2023-04-13T10:29:14.344Z,2.20
2023-04-13T10:31:42.695Z,1.50
2023-04-13T10:34:10.691Z,1.57
2023-04-13T10:36:39.194Z,1.43
2023-04-13T10:39:08.195Z,1.40
2023-04-13T10:41:36.526Z,1.40
2023-04-13T10:44:06.220Z,1.30
2023-04-13T10:46:34.825Z,1.40
2023-04-13T10:49:04.045Z,1.40
2023-04-13T10:51:40.982Z,1.60
2023-04-13T10:54:09.587Z,1.30
2023-04-13T10:56:37.326Z,1.40
2023-04-13T10:59:06.016Z,1.27
2023-04-13T11:01:34.059Z,1.33
2023-04-13T11:04:05.904Z,1.50
2023-04-13T11:06:36.676Z,1.67
2023-04-13T11:09:07.071Z,1.20
2023-04-13T11:11:37.043Z,1.20
2023-04-13T11:14:05.823Z,1.40
2023-04-13T11:16:33.282Z,1.37
2023-04-13T11:19:04.352Z,1.53
2023-04-13T11:21:32.263Z,1.60
2023-04-13T11:24:02.673Z,1.57
2023-04-13T11:26:34.394Z,1.30
2023-04-13T11:29:03.392Z,1.17
2023-04-13T11:31:39.366Z,1.47
2023-04-13T11:34:09.439Z,1.30
2023-04-13T11:36:38.806Z,1.33
2023-04-13T11:39:10.267Z,1.20
2023-04-13T11:41:40.621Z,1.37
2023-04-13T11:44:08.037Z,1.47
2023-04-13T11:46:35.593Z,1.30
2023-04-13T11:49:04.760Z,1.50
2023-04-13T11:51:32.365Z,1.50
2023-04-13T11:53:59.784Z,1.67
2023-04-13T11:56:27.296Z,1.40
2023-04-13T11:58:54.834Z,1.60
2023-04-13T12:01:26.174Z,1.80
2023-04-13T12:04:14.817Z,1.50
2023-04-13T12:06:45.862Z,1.40
2023-04-13T12:09:17.867Z,1.47
2023-04-13T12:11:54.261Z,1.73
2023-04-13T12:19:30.523Z,1.50
2023-04-13T12:22:00.239Z,1.80
2023-04-13T12:24:37.581Z,1.87
2023-04-13T12:29:37.976Z,1.50
2023-04-13T12:32:11.464Z,1.40
2023-04-13T12:34:40.162Z,1.23
2023-04-13T12:37:07.825Z,1.43
2023-04-13T12:39:35.246Z,1.80
2023-04-13T12:42:02.779Z,1.03
2023-04-13T12:44:32.389Z,1.53
2023-04-13T12:47:01.129Z,1.83
2023-04-13T12:49:28.660Z,1.37
2023-04-13T12:51:57.446Z,1.50
2023-04-13T12:54:24.995Z,1.70
2023-04-13T12:56:52.560Z,1.53
2023-04-13T12:59:21.905Z,1.60
2023-04-13T13:01:49.895Z,1.20
2023-04-13T13:04:17.439Z,1.50
2023-04-13T13:06:44.913Z,1.40
2023-04-13T13:09:13.646Z,1.90
2023-04-13T13:11:41.315Z,1.43
2023-04-13T13:14:10.651Z,1.50
2023-04-13T13:16:38.703Z,1.60
2023-04-13T13:19:06.340Z,1.47
2023-04-13T13:21:34.032Z,1.00
2023-04-13T13:24:01.687Z,1.07
2023-04-13T13:26:36.605Z,1.00
2023-04-13T13:29:19.174Z,0.97
2023-04-13T13:31:46.666Z,1.17
2023-04-13T13:34:14.096Z,1.00
2023-04-13T13:36:41.524Z,0.90
2023-04-13T13:39:08.898Z,1.10
2023-04-13T13:41:37.600Z,1.40
2023-04-13T13:44:05.019Z,0.63
2023-04-13T13:46:32.525Z,1.00
2023-04-13T13:49:04.637Z,1.13
2023-04-13T13:51:53.417Z,1.83
2023-04-13T13:54:24.453Z,1.67
2023-04-13T13:56:53.191Z,1.30
2023-04-13T13:59:20.575Z,1.10
2023-04-13T14:01:48.632Z,1.20
2023-04-13T14:04:16.165Z,0.90
2023-04-13T14:06:43.596Z,1.00
2023-04-13T14:09:10.998Z,1.20
2023-04-13T14:11:38.533Z,1.20
2023-04-13T14:14:18.260Z,1.40
2023-04-13T14:16:48.870Z,1.07
2023-04-13T14:19:18.048Z,0.97
2023-04-13T14:21:45.443Z,1.00
2023-04-13T14:24:12.847Z,1.40
2023-04-13T14:26:40.444Z,1.40
2023-04-13T14:29:09.790Z,1.30
2023-04-13T14:31:37.195Z,1.10
2023-04-13T14:34:04.616Z,1.07
2023-04-13T14:36:32.198Z,1.30
2023-04-13T14:39:00.877Z,1.10
2023-04-13T14:41:28.520Z,0.93
2023-04-13T14:43:55.872Z,1.20
2023-04-13T14:46:26.723Z,1.30
2023-04-13T14:48:54.202Z,1.40
2023-04-13T14:51:21.863Z,1.30
2023-04-13T14:53:49.222Z,1.40
2023-04-13T14:56:16.704Z,1.63
2023-04-13T14:58:44.141Z,1.40
2023-04-13T15:01:18.786Z,1.33
2023-04-13T15:03:48.149Z,1.20
2023-04-13T15:06:15.875Z,1.40
2023-04-13T15:08:43.237Z,1.10
2023-04-13T15:11:10.749Z,2.00
2023-04-13T15:13:38.169Z,1.30
2023-04-13T15:16:06.719Z,1.47
2023-04-13T15:18:34.083Z,1.53
2023-04-13T15:21:04.117Z,1.60
2023-04-13T15:23:31.556Z,0.90
2023-04-13T15:25:58.998Z,0.80
2023-04-13T15:28:26.492Z,0.90
2023-04-13T15:30:53.973Z,0.50
2023-04-13T15:33:21.397Z,0.60
2023-04-13T15:35:49.829Z,0.60
2023-04-13T15:38:18.576Z,0.80
2023-04-13T15:40:46.005Z,0.87
2023-04-13T15:43:13.412Z,0.83
2023-04-13T15:45:40.985Z,0.63
2023-04-13T15:48:08.423Z,1.00
2023-04-13T15:50:35.821Z,1.03
2023-04-13T15:53:03.218Z,1.00
2023-04-13T15:55:32.071Z,1.00
2023-04-13T15:57:59.477Z,0.80
2023-04-13T16:00:26.980Z,0.97
2023-04-13T16:02:54.491Z,0.90
2023-04-13T16:05:22.137Z,0.90
2023-04-13T16:07:49.624Z,0.80
2023-04-13T16:10:17.305Z,1.00
2023-04-13T16:12:46.068Z,0.80
2023-04-13T16:15:13.701Z,1.70
2023-04-13T16:17:43.535Z,0.97
2023-04-13T16:20:21.361Z,0.90
2023-04-13T16:22:52.048Z,1.10
2023-04-13T16:25:20.212Z,0.80
2023-04-13T16:27:49.043Z,0.70
2023-04-13T16:30:17.778Z,1.17
2023-04-13T16:32:46.196Z,2.07
2023-04-13T16:35:13.869Z,1.90
2023-04-13T16:37:42.242Z,2.90
2023-04-13T16:40:10.612Z,1.83
2023-04-13T16:42:38.428Z,1.70
2023-04-13T16:45:10.414Z,2.20
2023-04-13T16:47:39.631Z,1.70
2023-04-13T16:50:08.249Z,1.60
2023-04-13T16:52:35.708Z,1.60
2023-04-13T16:55:03.654Z,1.67
2023-04-13T16:57:31.021Z,1.20
2023-04-13T16:59:59.809Z,0.97
2023-04-13T17:02:31.466Z,1.50
2023-04-13T17:04:59.061Z,1.70
2023-04-13T17:07:28.081Z,1.33
2023-04-13T17:09:55.744Z,1.40
2023-04-13T17:12:23.296Z,1.60
2023-04-13T17:14:50.719Z,1.60
2023-04-13T17:17:18.098Z,2.20
2023-04-13T17:19:46.810Z,2.33
2023-04-13T17:22:14.251Z,2.10
2023-04-13T17:24:41.622Z,1.67
2023-04-13T17:27:09.018Z,1.50
2023-04-13T17:29:37.886Z,1.50
2023-04-13T17:32:06.040Z,2.27
2023-04-13T17:34:33.594Z,1.97
2023-04-13T17:37:02.848Z,2.00
2023-04-13T17:39:30.216Z,1.60
2023-04-13T17:41:58.612Z,1.50
2023-04-13T17:44:26.015Z,1.80
2023-04-13T17:46:54.389Z,1.50
2023-04-13T17:49:21.888Z,1.37
2023-04-13T17:51:49.501Z,1.50
2023-04-13T17:54:18.300Z,1.73
2023-04-13T17:56:45.735Z,2.00
2023-04-13T17:59:14.142Z,1.60
2023-04-13T18:01:42.300Z,1.30
2023-04-13T18:04:10.853Z,1.27
2023-04-13T18:06:38.379Z,1.30
2023-04-13T18:09:05.862Z,1.10
2023-04-13T18:11:34.627Z,1.40
2023-04-13T18:14:03.075Z,1.80
2023-04-13T18:16:31.712Z,1.60
2023-04-13T18:18:59.477Z,1.57
2023-04-13T18:21:27.638Z,1.70
2023-04-13T18:23:55.017Z,2.23
2023-04-13T18:26:22.743Z,1.40
2023-04-13T18:28:51.443Z,1.93
2023-04-13T18:31:18.919Z,1.50
2023-04-13T18:33:46.619Z,1.93
2023-04-13T18:36:14.989Z,1.40
2023-04-13T18:38:42.673Z,1.83
2023-04-13T18:41:10.040Z,1.53
2023-04-13T18:43:37.602Z,1.50
2023-04-13T18:46:06.541Z,1.30
2023-04-13T18:48:33.950Z,1.50
2023-04-13T18:51:02.801Z,1.37
2023-04-13T18:53:30.217Z,1.57
2023-04-13T18:55:58.305Z,1.63
2023-04-13T18:58:26.175Z,1.50
2023-04-13T19:00:53.617Z,1.87
2023-04-13T19:03:22.488Z,1.60
2023-04-13T19:05:50.119Z,2.00
2023-04-13T19:08:17.665Z,1.60
2023-04-13T19:10:45.218Z,1.70
2023-04-13T19:13:14.171Z,1.60
2023-04-13T19:15:41.602Z,1.63
2023-04-13T19:18:11.181Z,1.50
2023-04-13T19:20:39.992Z,1.60
2023-04-13T19:23:07.416Z,1.70
2023-04-13T19:25:34.810Z,1.70
2023-04-13T19:28:02.384Z,1.70
2023-04-13T19:30:29.740Z,2.00
2023-04-13T19:32:57.210Z,2.10
2023-04-13T19:35:26.060Z,1.70
2023-04-13T19:37:55.056Z,1.70
2023-04-13T19:40:23.132Z,2.03
2023-04-13T19:42:50.544Z,2.70
2023-04-13T19:45:18.315Z,2.60
2023-04-13T19:47:46.209Z,2.17
2023-04-13T19:50:14.615Z,2.30
2023-04-13T19:52:42.393Z,2.50
2023-04-13T19:55:11.925Z,2.40
2023-04-13T19:57:41.949Z,2.40
2023-04-13T20:00:17.002Z,2.50
2023-04-13T20:02:46.798Z,2.27
2023-04-13T20:05:14.461Z,2.20
2023-04-13T20:07:41.934Z,2.50
2023-04-13T20:10:12.027Z,2.13
2023-04-13T20:12:39.472Z,2.07
2023-04-13T20:15:07.590Z,2.00
2023-04-13T20:17:35.246Z,2.20
2023-04-13T20:20:03.346Z,2.07
2023-04-13T20:22:30.816Z,2.10
2023-04-13T20:24:58.261Z,2.27
2023-04-13T20:27:27.123Z,1.93
2023-04-13T20:29:54.502Z,2.00
2023-04-13T20:32:21.940Z,2.10
2023-04-13T20:34:49.610Z,2.20
2023-04-13T20:37:18.280Z,2.57
2023-04-13T20:39:52.488Z,2.43
2023-04-13T20:42:20.293Z,2.30
2023-04-13T20:44:49.157Z,2.17
2023-04-13T20:47:16.667Z,2.30
2023-04-13T20:49:48.789Z,2.37
2023-04-13T20:52:17.912Z,2.10
2023-04-13T20:54:45.926Z,1.63
2023-04-13T20:57:13.332Z,1.97
2023-04-13T20:59:40.776Z,2.00
2023-04-13T21:02:10.381Z,1.83
2023-04-13T21:04:37.917Z,1.77
2023-04-13T21:07:05.334Z,1.90
2023-04-13T21:09:32.796Z,1.87
2023-04-13T21:12:01.582Z,2.10
2023-04-13T21:14:29.016Z,2.10
2023-04-13T21:16:56.845Z,2.10
2023-04-13T21:19:25.793Z,1.97
2023-04-13T21:21:53.445Z,2.13
2023-04-13T21:24:20.937Z,2.40
2023-04-13T21:26:48.382Z,2.30
2023-04-13T21:29:16.317Z,2.50
2023-04-13T21:31:43.963Z,2.30
2023-04-13T21:34:11.407Z,2.83
2023-04-13T21:39:10.944Z,2.60
2023-04-13T21:41:39.964Z,2.80
2023-04-13T21:44:11.611Z,3.10
2023-04-13T21:46:49.867Z,2.70
2023-04-13T21:49:17.338Z,3.23
2023-04-13T21:51:46.061Z,3.17
2023-04-13T21:54:13.447Z,3.50
2023-04-13T21:56:40.773Z,3.70
2023-04-13T21:59:08.152Z,3.43
2023-04-13T22:01:35.578Z,4.10
2023-04-13T22:04:03.079Z,3.90
2023-04-13T22:06:31.222Z,3.80
2023-04-13T22:09:00.114Z,3.40
2023-04-13T22:11:27.989Z,2.80
2023-04-13T22:13:55.421Z,2.80
2023-04-13T22:16:22.907Z,3.00
2023-04-13T22:18:50.605Z,3.13
2023-04-13T22:21:18.012Z,3.20
2023-04-13T22:23:45.577Z,3.17
2023-04-13T22:26:14.354Z,3.00
2023-04-13T22:28:41.855Z,2.80
2023-04-13T22:31:09.678Z,2.80
2023-04-13T22:33:37.425Z,3.07
2023-04-13T22:36:05.168Z,2.90
2023-04-13T22:38:32.576Z,3.10
2023-04-13T22:40:59.943Z,3.27
2023-04-13T22:43:28.659Z,3.00
2023-04-13T22:45:59.033Z,3.40
2023-04-13T22:48:26.534Z,3.13
2023-04-13T22:50:53.960Z,3.00
2023-04-13T22:53:21.415Z,2.97
2023-04-13T22:55:48.800Z,3.10
2023-04-13T22:58:16.323Z,2.70
2023-04-13T23:00:45.156Z,3.20
2023-04-13T23:03:12.823Z,2.80
2023-04-13T23:05:40.387Z,2.90
2023-04-13T23:08:07.765Z,2.67
2023-04-13T23:10:35.171Z,2.93
2023-04-13T23:13:02.617Z,3.73
2023-04-13T23:15:29.959Z,3.10
2023-04-13T23:17:58.729Z,2.90
2023-04-13T23:20:28.163Z,3.20
2023-04-13T23:22:55.572Z,3.03
2023-04-13T23:25:23.003Z,3.10
2023-04-13T23:27:50.428Z,2.97
2023-04-13T23:30:17.955Z,2.87
2023-04-13T23:32:45.386Z,3.27
2023-04-13T23:35:14.128Z,3.30
2023-04-13T23:37:43.023Z,3.10
2023-04-13T23:40:10.772Z,2.70
2023-04-13T23:42:38.170Z,2.70
2023-04-13T23:45:06.053Z,2.87
2023-04-13T23:47:33.444Z,2.70
2023-04-13T23:50:00.905Z,3.20
2023-04-13T23:52:29.829Z,2.73
2023-04-13T23:54:57.265Z,3.00
2023-04-13T23:57:24.794Z,2.83
2023-04-13T23:59:56.365Z,2.97
